NCAR-RAP Real-Time Weather Data

Output produced by METARs form (24 April 2018  16:26 UTC)
found at http://weather.rap.ucar.edu/surface/
 
RJSN 241214Z 10004KT 6000 -RA FEW010 SCT030 OVC060 15/15 Q1007 RMK 1ST010 4SC030 8NS060 A2975
RJSN 241200Z 09003KT 4000 RA BR FEW010 SCT030 OVC060 15/15 Q1007
RJSN 241100Z 10005KT 7000 -RA FEW010 BKN060 OVC080 15/15 Q1007
RJSN 241000Z 09007KT 6000 -RA FEW010 SCT030 OVC060 15/15 Q1007
RJSN 240900Z 09005KT 5000 -RA BR FEW010 SCT040 OVC070 15/15 Q1008
RJSN 240800Z 08006KT 7000 -RA FEW010 SCT050 OVC070 16/15 Q1008
RJSN 240700Z 05006KT 5000 -RA BR FEW010 SCT050 OVC070 14/14 Q1008
RJSN 240600Z 04008KT 5000 -RA BR FEW010 SCT040 OVC070 14/14 Q1009
RJSN 240500Z 04008KT 5000 -RA BR FEW010 SCT040 OVC070 14/14 Q1010
RJSN 240400Z 04008KT 6000 -RA FEW010 SCT040 OVC060 14/14 Q1011
RJSN 240300Z 04006KT 7000 -RA FEW020 BKN050 OVC070 14/13 Q1012
RJSN 240200Z 02004KT 9999 -RA FEW030 BKN050 OVC080 14/14 Q1013
RJSN 240100Z 00000KT 9999 -RA FEW030 BKN050 OVC080 15/14 Q1013
RJSN 240000Z 10004KT 070V130 9999 -RA FEW030 BKN050 OVC080 15/13 Q1014
RJSN 232300Z 08005KT 9999 -RA FEW030 BKN050 OVC080 14/13 Q1014
RJSN 232200Z 03003KT 8000 -RA FEW030 BKN050 13/13 Q1014
RJSN 232110Z 08002KT 8000 -RA FEW030 BKN050 13/13 Q1015 RMK 1SC030 7SC050 A2997
RJSN 231200Z 03004KT 9999 SCT050 BKN070 16/12 Q1017
RJSN 231100Z 21003KT 170V250 9999 SCT060 BKN080 18/10 Q1017
RJSN 231000Z 36004KT 9999 FEW060 BKN080 16/12 Q1017
RJSN 230900Z 28002KT 9999 FEW060 BKN080 17/12 Q1016
RJSN 230800Z 36007KT 9999 SCT080 BKN/// 17/12 Q1016
RJSN 230740Z 31006KT 270V350 9999 SCT080 BKN/// 17/12 Q1016 RMK 4AC080 A3001
RJSN 230700Z 01011KT CAVOK 15/13 Q1016
RJSN 230600Z 35009KT 5000 BR NSC 16/13 Q1016
RJSN 230500Z 35010KT 6000 BR NSC 16/13 Q1017
RJSN 230400Z 33012KT 7000 NSC 16/13 Q1018
RJSN 230300Z 33010KT 5000 BR FEW006 SCT180 BKN/// 16/13 Q1018
RJSN 230200Z 34011KT 8000 FEW006 SCT180 BKN/// 16/13 Q1019
RJSN 230100Z 06004KT 8000 FEW006 SCT190 BKN/// 17/12 Q1020
RJSN 230000Z 06005KT 020V090 5000 BR FEW004 SCT006 BKN190 15/13 Q1021
RJSN 222327Z 05005KT 360V070 5000 BR FEW004 SCT006 BKN120 14/12 Q1021 RMK 1ST004 4ST006 6AC120 A3015
RJSN 222300Z 02005KT 5000 BR FEW004 BKN006 13/12 Q1021
RJSN 222213Z 02007KT 3500 BR FEW004 BKN006 13/12 Q1020 RMK 1ST004 7ST006 A3015
RJSN 222200Z 01006KT 2500 BR FEW004 BKN006 13/13 Q1020
RJSN 222110Z 36005KT 330V030 2500 BR FEW003 BKN004 13/12 Q1020 RMK 2ST003 7ST004 A3012
RJSN 221200Z 03005KT CAVOK 14/13 Q1019
RJSN 221100Z 05005KT CAVOK 15/13 Q1018
RJSN 221000Z 05006KT CAVOK 15/13 Q1018
RJSN 220900Z 05008KT CAVOK 16/13 Q1018
RJSN 220800Z 04010KT CAVOK 17/12 Q1018
RJSN 220700Z 29009KT CAVOK 19/12 Q1017
RJSN 220641Z 32012KT CAVOK 23/11 Q1017 RMK A3004
RJSN 220600Z 26015KT CAVOK 23/10 Q1017
RJSN 220500Z 26015KT CAVOK 24/08 Q1017